Time;durP1;ratioP1;P1;durP2;ratioP2;P2;SDS_P1;SDS_P2;PMS_P1;PMS_P2;Temp;Humidity;BMP_temperature;BMP_pressure;BME280_temperature;BME280_humidity;BME280_pressure;Samples;Min_cycle;Max_cycle;Signal;HPM_P1;HPM_P2
2023/04/29 00:00:49;;;;;;;7.40;6.65;;;;;;;10.24;51.61;99671.22;5094279;28;20157;-75
2023/04/29 00:03:15;;;;;;;8.02;6.85;;;;;;;10.37;50.92;99701.34;5092874;28;20031;-78
2023/04/29 00:05:40;;;;;;;16.08;6.95;;;;;;;10.60;51.78;99748.94;5094071;28;20031;-77
2023/04/29 00:08:06;;;;;;;7.47;5.85;;;;;;;10.61;51.46;99753.22;5094080;28;20027;-77
2023/04/29 00:10:31;;;;;;;9.85;6.32;;;;;;;10.77;51.07;99776.09;5094075;28;20028;-77
2023/04/29 00:12:56;;;;;;;7.15;5.60;;;;;;;10.62;51.13;99757.50;5092635;28;20020;-77
2023/04/29 00:15:22;;;;;;;40.70;22.20;;;;;;;10.71;51.41;99764.41;5093924;28;20038;-76
2023/04/29 00:17:47;;;;;;;19.13;12.65;;;;;;;10.67;51.32;99768.38;5093771;28;20404;-77
2023/04/29 00:20:13;;;;;;;9.75;6.80;;;;;;;10.62;51.79;99765.44;5091577;28;20032;-78
2023/04/29 00:22:38;;;;;;;6.50;5.78;;;;;;;10.66;51.85;99765.91;5093823;28;20031;-77
2023/04/29 00:25:05;;;;;;;7.43;5.72;;;;;;;10.67;51.28;99778.94;5092428;28;20043;-77
2023/04/29 00:27:31;;;;;;;7.78;5.53;;;;;;;10.39;51.86;99711.72;5093637;28;20041;-76
2023/04/29 00:29:57;;;;;;;11.13;6.55;;;;;;;10.77;51.59;99768.97;5093795;28;20030;-78
2023/04/29 00:32:22;;;;;;;6.70;5.75;;;;;;;10.20;51.25;99681.31;5093469;28;20016;-76
2023/04/29 00:34:48;;;;;;;25.65;8.40;;;;;;;10.73;51.30;99766.88;5093402;28;20027;-77
2023/04/29 00:37:14;;;;;;;7.05;5.88;;;;;;;10.55;51.05;99748.63;5093494;28;20553;-77
2023/04/29 00:39:39;;;;;;;6.63;5.40;;;;;;;10.05;51.25;99694.38;5093425;28;20102;-78
2023/04/29 00:42:05;;;;;;;7.38;4.95;;;;;;;10.12;50.68;99691.88;5093222;28;20099;-78
2023/04/29 00:44:31;;;;;;;14.35;6.07;;;;;;;10.32;51.57;99719.50;5093184;28;20039;-76
2023/04/29 00:46:56;;;;;;;8.27;5.63;;;;;;;10.27;51.30;99721.03;5091857;28;20028;-77
2023/04/29 00:49:21;;;;;;;27.27;7.07;;;;;;;9.93;51.47;99668.53;5091913;28;20110;-77
2023/04/29 00:51:48;;;;;;;10.50;5.70;;;;;;;10.21;51.40;99716.44;5093317;28;20027;-78
2023/04/29 00:54:14;;;;;;;11.23;5.57;;;;;;;9.86;51.75;99665.75;5093139;28;20510;-77
2023/04/29 00:56:44;;;;;;;31.48;18.85;;;;;;;10.21;51.69;99709.34;5093215;28;20485;-77
2023/04/29 00:59:11;;;;;;;22.95;14.23;;;;;;;10.52;51.44;99753.44;5093257;28;20032;-77
2023/04/29 01:01:37;;;;;;;7.78;6.68;;;;;;;10.43;51.62;99760.56;5093004;28;20016;-78
2023/04/29 01:04:04;;;;;;;7.80;5.95;;;;;;;9.94;51.30;99680.72;5092868;28;20497;-76
2023/04/29 01:06:53;;;;;;;23.75;7.85;;;;;;;10.41;51.19;99760.75;5092706;28;20055;-78
2023/04/29 01:09:49;;;;;;;5.78;4.93;;;;;;;10.36;51.94;99765.69;5092841;28;20088;-78
2023/04/29 01:12:44;;;;;;;9.05;6.57;;;;;;;10.14;51.86;99732.91;5092759;28;20030;-77
2023/04/29 01:15:15;;;;;;;8.00;6.40;;;;;;;10.26;51.19;99736.03;5092664;28;20721;-77
2023/04/29 01:17:49;;;;;;;7.22;5.70;;;;;;;9.98;51.43;99708.41;5092664;28;20517;-77
2023/04/29 01:20:15;;;;;;;34.47;8.80;;;;;;;10.40;51.33;99767.03;5092645;28;20052;-77
2023/04/29 01:22:41;;;;;;;18.98;7.10;;;;;;;10.19;51.64;99743.78;5092706;28;20485;-77
2023/04/29 01:25:07;;;;;;;7.40;5.68;;;;;;;10.33;51.78;99768.66;5091284;28;20034;-78
2023/04/29 01:27:38;;;;;;;18.00;6.22;;;;;;;9.85;51.68;99693.13;5092367;28;20506;-77
2023/04/29 01:30:22;;;;;;;13.63;6.05;;;;;;;10.27;51.60;99763.25;5092598;28;20424;-77
2023/04/29 01:32:50;;;;;;;8.60;5.20;;;;;;;10.27;52.07;99755.34;5091308;28;20031;-78
2023/04/29 01:35:30;;;;;;;6.45;5.75;;;;;;;10.29;52.00;99759.44;5091047;28;20638;-77
2023/04/29 01:38:22;;;;;;;6.43;5.15;;;;;;;9.84;51.85;99694.94;5092267;28;20099;-78
2023/04/29 01:41:16;;;;;;;10.10;5.28;;;;;;;10.22;51.86;99750.56;5092340;28;20047;-78
2023/04/29 01:43:42;;;;;;;9.73;5.45;;;;;;;10.23;51.69;99746.13;5087436;28;20059;-78
2023/04/29 01:46:10;;;;;;;7.47;5.60;;;;;;;10.24;51.60;99743.31;5092213;28;20032;-77
2023/04/29 01:48:36;;;;;;;32.97;7.75;;;;;;;9.86;51.44;99671.84;5092157;28;20409;-77
2023/04/29 01:51:01;;;;;;;5.63;5.03;;;;;;;9.94;51.79;99688.66;5092026;28;20027;-77
2023/04/29 01:53:27;;;;;;;6.30;5.00;;;;;;;9.88;52.10;99685.69;5091947;28;20035;-77
2023/04/29 01:55:52;;;;;;;5.60;4.85;;;;;;;9.27;51.86;99593.25;5091941;28;20030;-77
2023/04/29 01:58:18;;;;;;;5.70;5.13;;;;;;;9.64;52.13;99663.81;5092061;28;20024;-78
2023/04/29 02:00:43;;;;;;;8.25;5.47;;;;;;;9.97;52.21;99715.50;5092288;28;20028;-77
2023/04/29 02:03:08;;;;;;;10.98;6.15;;;;;;;9.82;51.95;99675.00;5090887;28;20036;-78
2023/04/29 02:05:34;;;;;;;7.07;5.95;;;;;;;9.88;51.88;99687.50;5091909;28;20032;-77
2023/04/29 02:08:00;;;;;;;8.35;5.50;;;;;;;9.65;51.42;99647.00;5091750;28;20633;-77
2023/04/29 02:10:27;;;;;;;8.20;5.50;;;;;;;10.19;51.99;99740.31;5091741;28;20083;-78
2023/04/29 02:12:53;;;;;;;6.60;5.32;;;;;;;10.18;52.15;99741.31;5090434;28;20024;-77
2023/04/29 02:15:18;;;;;;;7.00;5.97;;;;;;;9.85;51.87;99688.69;5091695;28;20039;-77
2023/04/29 02:17:44;;;;;;;11.23;5.63;;;;;;;10.22;52.04;99747.09;5091767;28;20027;-78
2023/04/29 02:20:09;;;;;;;17.63;6.45;;;;;;;9.65;51.87;99636.47;5091567;28;20036;-77
2023/04/29 02:22:35;;;;;;;14.75;7.38;;;;;;;10.25;52.18;99733.56;5091622;28;20034;-77
2023/04/29 02:25:01;;;;;;;5.95;5.15;;;;;;;9.85;52.25;99661.47;5091833;28;20107;-77
2023/04/29 02:27:27;;;;;;;9.05;5.35;;;;;;;9.98;52.32;99676.75;5091465;28;20059;-77
2023/04/29 02:29:52;;;;;;;6.50;5.30;;;;;;;10.05;52.15;99694.38;5091653;28;20036;-77
2023/04/29 02:32:19;;;;;;;7.93;5.47;;;;;;;9.65;52.37;99631.19;5091272;28;20024;-77
2023/04/29 02:34:45;;;;;;;7.97;5.78;;;;;;;10.18;52.26;99720.22;5091387;28;20031;-77
2023/04/29 02:37:10;;;;;;;7.47;5.57;;;;;;;9.93;53.00;99690.47;5091591;28;20012;-78
2023/04/29 02:39:36;;;;;;;19.73;7.63;;;;;;;10.13;52.51;99710.16;5090150;28;20491;-77
2023/04/29 02:42:01;;;;;;;7.78;5.22;;;;;;;9.95;52.71;99691.13;5091340;28;20034;-77
2023/04/29 02:44:27;;;;;;;5.28;4.78;;;;;;;9.71;52.88;99655.09;5093767;28;20085;-77
2023/04/29 02:46:53;;;;;;;6.15;5.50;;;;;;;9.78;52.81;99677.16;5095635;28;20028;-77
2023/04/29 02:49:18;;;;;;;8.18;6.15;;;;;;;9.97;53.33;99726.06;5095960;28;20028;-77
2023/04/29 02:51:44;;;;;;;9.57;5.65;;;;;;;9.37;52.98;99634.25;5099228;28;20023;-77
2023/04/29 02:54:10;;;;;;;11.98;6.72;;;;;;;9.99;52.72;99720.59;5102339;28;20024;-78
2023/04/29 02:56:36;;;;;;;7.70;5.50;;;;;;;9.94;52.57;99715.84;5098512;28;20149;-76
2023/04/29 02:59:02;;;;;;;8.77;5.75;;;;;;;9.94;52.11;99707.94;5094253;28;20042;-78
2023/04/29 03:01:27;;;;;;;6.13;5.50;;;;;;;9.47;52.00;99648.06;5094751;28;20043;-77
2023/04/29 03:03:53;;;;;;;8.15;5.47;;;;;;;9.53;51.89;99671.09;5095526;28;20511;-77
2023/04/29 03:06:19;;;;;;;8.52;5.20;;;;;;;9.57;52.46;99685.59;5095420;28;20515;-78
2023/04/29 03:08:44;;;;;;;11.30;5.85;;;;;;;9.59;52.36;99726.78;5095307;28;20027;-76
2023/04/29 03:11:10;;;;;;;16.85;6.30;;;;;;;9.33;52.64;99711.97;5095225;28;20481;-76
2023/04/29 03:13:36;;;;;;;6.93;4.97;;;;;;;9.23;52.73;99711.31;5095354;28;20094;-78
2023/04/29 03:16:01;;;;;;;6.95;5.22;;;;;;;9.10;53.06;99696.00;5095055;28;20416;-77
2023/04/29 03:18:27;;;;;;;11.57;7.28;;;;;;;8.91;52.94;99652.38;5094814;28;20109;-78
2023/04/29 03:20:53;;;;;;;6.45;5.45;;;;;;;9.52;52.61;99739.78;5094860;28;20140;-78
2023/04/29 03:23:18;;;;;;;7.55;5.28;;;;;;;8.89;52.55;99648.25;5095045;28;20020;-76
2023/04/29 03:25:43;;;;;;;15.50;6.65;;;;;;;9.21;52.72;99700.13;5094764;28;20048;-77
2023/04/29 03:28:09;;;;;;;13.30;6.45;;;;;;;9.02;52.99;99688.13;5094747;28;20032;-78
2023/04/29 03:30:35;;;;;;;8.70;6.32;;;;;;;8.87;53.08;99695.00;5094919;28;20024;-78
2023/04/29 03:33:00;;;;;;;16.23;6.95;;;;;;;8.89;53.11;99688.56;5094476;28;20028;-77
2023/04/29 03:35:26;;;;;;;8.40;7.10;;;;;;;8.37;53.17;99597.72;5094720;28;20519;-78
2023/04/29 03:37:52;;;;;;;7.03;6.28;;;;;;;9.18;53.47;99725.00;5094678;28;20412;-77
2023/04/29 03:40:17;;;;;;;6.18;5.60;;;;;;;9.35;52.72;99752.16;5094708;28;20031;-77
2023/04/29 03:42:43;;;;;;;32.47;11.00;;;;;;;8.75;53.07;99655.00;5094608;28;20028;-77
2023/04/29 03:45:11;;;;;;;15.95;7.07;;;;;;;9.30;52.80;99743.94;5093098;28;20493;-77
2023/04/29 03:47:37;;;;;;;13.57;6.35;;;;;;;8.97;52.80;99694.88;5094285;28;20031;-78
2023/04/29 03:50:03;;;;;;;13.85;6.68;;;;;;;8.98;53.00;99713.13;5094392;28;20028;-78
2023/04/29 03:52:28;;;;;;;7.22;5.93;;;;;;;8.67;53.02;99675.22;5094196;28;20073;-78
2023/04/29 03:54:54;;;;;;;8.00;6.13;;;;;;;9.19;53.02;99744.25;5093317;28;20161;-77
2023/04/29 03:57:19;;;;;;;12.25;8.07;;;;;;;9.00;53.13;99719.06;5094038;28;20028;-77
2023/04/29 03:59:48;;;;;;;8.70;6.80;;;;;;;9.30;52.96;99759.72;5094293;28;20028;-78
2023/04/29 04:02:14;;;;;;;9.43;6.20;;;;;;;9.34;52.88;99765.50;5094272;28;20024;-76
2023/04/29 04:04:40;;;;;;;9.52;7.40;;;;;;;8.98;52.90;99707.88;5094326;28;20043;-77
2023/04/29 04:07:05;;;;;;;24.63;7.88;;;;;;;8.75;52.76;99672.59;5094057;28;20028;-78
2023/04/29 04:09:32;;;;;;;12.40;8.13;;;;;;;9.15;52.84;99727.94;5094040;28;20020;-77
2023/04/29 04:11:57;;;;;;;8.82;6.63;;;;;;;8.99;52.91;99700.78;5093955;28;20107;-77
2023/04/29 04:14:23;;;;;;;8.50;7.05;;;;;;;9.33;52.98;99753.31;5093900;28;20099;-77
2023/04/29 04:16:49;;;;;;;8.45;7.47;;;;;;;9.47;52.75;99757.91;5094033;28;20106;-78
2023/04/29 04:19:15;;;;;;;26.98;10.45;;;;;;;8.99;52.51;99667.38;5093936;28;20023;-77
2023/04/29 04:21:41;;;;;;;14.65;8.38;;;;;;;9.47;52.82;99753.47;5093744;28;20020;-76
2023/04/29 04:24:07;;;;;;;9.18;8.27;;;;;;;8.96;52.39;99653.72;5093717;28;20081;-78
2023/04/29 04:26:32;;;;;;;11.25;8.80;;;;;;;9.21;52.52;99702.75;5093773;28;20127;-78
2023/04/29 04:28:58;;;;;;;13.15;8.77;;;;;;;9.69;52.55;99780.19;5093827;28;20501;-78
2023/04/29 04:31:24;;;;;;;7.93;7.13;;;;;;;9.60;52.46;99747.69;5092475;28;20031;-77
2023/04/29 04:33:49;;;;;;;12.05;7.07;;;;;;;9.71;52.56;99770.28;5093607;28;20056;-77
2023/04/29 04:36:15;;;;;;;15.18;8.07;;;;;;;9.14;52.50;99683.34;5093667;28;20523;-77
2023/04/29 04:38:40;;;;;;;12.77;8.10;;;;;;;9.56;52.34;99739.28;5093584;28;20476;-77
2023/04/29 04:41:07;;;;;;;18.23;9.10;;;;;;;9.81;52.53;99765.66;5093468;28;20493;-78
2023/04/29 04:43:32;;;;;;;32.33;14.98;;;;;;;9.72;52.46;99743.75;5092223;28;20019;-77
2023/04/29 04:45:58;;;;;;;24.65;13.68;;;;;;;9.44;52.00;99684.47;5093410;28;20047;-77
2023/04/29 04:48:23;;;;;;;10.18;7.85;;;;;;;9.31;52.63;99657.81;5093601;28;20024;-77
2023/04/29 04:50:48;;;;;;;10.23;7.50;;;;;;;9.39;52.22;99671.78;5093382;28;20027;-78
2023/04/29 04:53:14;;;;;;;9.63;7.78;;;;;;;10.08;52.53;99767.06;5092103;28;20469;-78
2023/04/29 04:55:39;;;;;;;10.77;7.47;;;;;;;9.62;52.20;99692.16;5093180;28;20568;-76
2023/04/29 04:58:05;;;;;;;24.15;10.10;;;;;;;9.83;52.79;99732.03;5091773;28;20015;-77
2023/04/29 05:00:30;;;;;;;116.57;35.28;;;;;;;9.78;52.59;99714.06;5093027;28;20098;-77
2023/04/29 05:02:56;;;;;;;9.23;7.93;;;;;;;10.21;52.92;99777.94;5093007;28;20424;-78
2023/04/29 05:05:21;;;;;;;17.92;9.85;;;;;;;10.23;52.34;99764.59;5092993;28;20081;-77
2023/04/29 05:07:47;;;;;;;11.38;8.25;;;;;;;10.38;52.39;99774.25;5092800;28;20418;-77
2023/04/29 05:10:12;;;;;;;12.20;7.88;;;;;;;10.17;52.42;99735.22;5092927;28;20077;-77
2023/04/29 05:12:37;;;;;;;22.83;9.23;;;;;;;10.42;52.86;99758.94;5091655;28;20028;-78
2023/04/29 05:15:03;;;;;;;49.05;17.88;;;;;;;9.98;52.90;99689.94;5092821;28;20024;-77
2023/04/29 05:17:29;;;;;;;12.43;8.45;;;;;;;10.52;53.17;99777.19;5093031;28;20497;-77
2023/04/29 05:19:55;;;;;;;10.85;8.13;;;;;;;10.59;53.51;99789.53;5092861;28;20425;-77
2023/04/29 05:22:20;;;;;;;10.52;8.20;;;;;;;10.19;53.38;99704.19;5092657;28;20024;-77
2023/04/29 05:24:47;;;;;;;10.68;9.15;;;;;;;10.72;54.19;99773.97;5092537;28;20027;-78
2023/04/29 05:27:13;;;;;;;9.63;8.50;;;;;;;10.43;53.95;99705.16;5092421;28;20040;-77
2023/04/29 05:29:38;;;;;;;8.65;7.75;;;;;;;10.61;53.53;99710.97;5092513;28;20024;-78
2023/04/29 05:32:04;;;;;;;12.00;9.05;;;;;;;10.92;54.00;99749.75;5091508;28;20039;-77
2023/04/29 05:34:29;;;;;;;13.82;9.25;;;;;;;11.19;53.95;99780.97;5093699;28;20020;-77
2023/04/29 05:36:56;;;;;;;24.55;10.13;;;;;;;11.03;53.71;99736.94;5096147;28;20107;-78
2023/04/29 05:39:21;;;;;;;8.98;8.13;;;;;;;10.99;53.84;99717.16;5092323;28;20103;-77
2023/04/29 05:41:47;;;;;;;10.02;7.93;;;;;;;11.22;53.73;99771.88;5091311;28;20024;-78
2023/04/29 05:44:12;;;;;;;10.25;8.38;;;;;;;11.00;53.34;99697.66;5091224;28;20028;-77
2023/04/29 05:46:38;;;;;;;25.45;10.70;;;;;;;11.04;53.52;99682.28;5092463;28;20036;-77
2023/04/29 05:49:03;;;;;;;69.28;14.50;;;;;;;11.30;53.45;99714.47;5092165;28;20416;-78
2023/04/29 05:51:30;;;;;;;133.38;49.20;;;;;;;11.84;53.32;99780.44;5091974;28;20438;-77
2023/04/29 05:53:58;;;;;;;19.52;7.97;;;;;;;11.95;52.59;99776.56;5091856;28;20103;-77
2023/04/29 05:56:23;;;;;;;13.80;7.88;;;;;;;11.91;52.99;99740.88;5090779;28;20100;-78
2023/04/29 05:58:49;;;;;;;18.20;9.57;;;;;;;12.09;52.55;99759.88;5092111;28;20481;-77
2023/04/29 06:01:16;;;;;;;11.10;7.25;;;;;;;11.82;52.92;99702.25;5092059;28;20480;-78
2023/04/29 06:03:41;;;;;;;13.23;9.10;;;;;;;11.98;52.53;99710.88;5092086;28;20431;-76
2023/04/29 06:06:07;;;;;;;49.50;10.55;;;;;;;12.44;52.10;99778.66;5091952;28;20103;-77
2023/04/29 06:08:32;;;;;;;10.93;6.50;;;;;;;12.48;52.24;99769.34;5091956;28;20028;-77
2023/04/29 06:10:58;;;;;;;7.32;6.60;;;;;;;12.08;51.95;99694.72;5091987;28;20079;-77
2023/04/29 06:13:23;;;;;;;11.98;7.13;;;;;;;12.04;51.63;99681.03;5092093;28;20514;-77
2023/04/29 06:15:49;;;;;;;21.15;7.80;;;;;;;12.71;51.34;99772.72;5092395;28;20020;-77
2023/04/29 06:18:15;;;;;;;19.38;9.40;;;;;;;12.69;51.53;99759.66;5091302;28;20140;-77
2023/04/29 06:20:40;;;;;;;17.38;7.10;;;;;;;12.70;51.35;99749.88;5090475;28;20016;-77
2023/04/29 06:23:06;;;;;;;15.60;6.93;;;;;;;12.35;51.34;99685.25;5091932;28;20085;-78
2023/04/29 06:25:31;;;;;;;20.05;7.75;;;;;;;12.93;50.81;99765.63;5091613;28;20473;-77
2023/04/29 06:27:57;;;;;;;21.67;8.73;;;;;;;12.70;51.28;99737.44;5090648;28;20034;-77
2023/04/29 06:30:22;;;;;;;15.20;6.97;;;;;;;12.93;51.15;99784.97;5091821;28;20477;-77
2023/04/29 06:32:48;;;;;;;9.05;6.95;;;;;;;12.92;51.39;99758.66;5091327;28;20034;-77
2023/04/29 06:35:13;;;;;;;6.97;5.53;;;;;;;12.70;50.68;99689.75;5091372;28;20062;-77
2023/04/29 06:37:39;;;;;;;7.43;5.95;;;;;;;12.86;50.31;99693.16;5091525;28;20045;-77
2023/04/29 06:40:05;;;;;;;31.52;9.07;;;;;;;13.16;49.99;99734.44;5091530;28;20028;-77
2023/04/29 06:42:31;;;;;;;7.10;6.38;;;;;;;12.82;49.42;99663.59;5091249;28;20028;-77
2023/04/29 06:44:56;;;;;;;23.63;9.13;;;;;;;13.41;49.68;99745.53;5091125;28;20153;-78
2023/04/29 06:47:22;;;;;;;7.20;5.50;;;;;;;13.28;49.19;99719.69;5091227;28;20444;-77
2023/04/29 06:49:47;;;;;;;7.35;6.60;;;;;;;13.44;49.27;99757.59;5090027;28;20024;-78
2023/04/29 06:52:13;;;;;;;8.10;6.25;;;;;;;12.96;49.28;99667.19;5091271;28;20082;-77
2023/04/29 06:54:38;;;;;;;28.88;10.45;;;;;;;13.47;49.28;99747.41;5091397;28;20467;-76
2023/04/29 06:57:04;;;;;;;19.02;7.70;;;;;;;12.93;49.46;99646.34;5091211;28;20080;-78
2023/04/29 06:59:29;;;;;;;8.95;6.07;;;;;;;13.38;49.38;99710.59;5091263;28;20024;-77
2023/04/29 07:01:55;;;;;;;8.60;6.72;;;;;;;13.52;49.38;99726.44;5091353;28;20417;-77
2023/04/29 07:04:20;;;;;;;8.30;5.80;;;;;;;13.63;48.92;99717.13;5091183;28;20035;-77
2023/04/29 07:06:45;;;;;;;14.43;7.78;;;;;;;13.75;49.07;99730.69;5091231;28;20035;-77
2023/04/29 07:09:14;;;;;;;8.75;6.15;;;;;;;13.79;49.07;99723.97;5089805;28;20036;-77
2023/04/29 07:11:40;;;;;;;8.90;6.20;;;;;;;13.95;48.59;99727.13;5090975;28;20032;-76
2023/04/29 07:14:06;;;;;;;32.60;11.40;;;;;;;14.04;48.07;99722.50;5090991;28;20416;-77
2023/04/29 07:16:31;;;;;;;8.00;6.35;;;;;;;13.93;47.96;99707.94;5090889;28;20073;-77
2023/04/29 07:18:57;;;;;;;6.78;4.88;;;;;;;14.08;47.41;99712.31;5090796;28;20032;-78
2023/04/29 07:21:22;;;;;;;4.90;4.07;;;;;;;14.12;46.41;99713.53;5089580;28;20093;-76
2023/04/29 07:23:47;;;;;;;13.52;5.28;;;;;;;14.02;46.08;99683.88;5090903;28;20028;-77
2023/04/29 07:26:15;;;;;;;13.40;5.35;;;;;;;14.39;46.07;99733.94;5090834;28;20132;-78
2023/04/29 07:28:42;;;;;;;12.80;6.70;;;;;;;14.49;45.88;99725.63;5090941;28;20034;-76
2023/04/29 07:31:08;;;;;;;26.52;8.48;;;;;;;14.59;45.38;99726.88;5094199;28;20030;-77
2023/04/29 07:33:34;;;;;;;11.68;4.60;;;;;;;14.28;44.97;99663.59;5093396;28;20381;-78
2023/04/29 07:36:00;;;;;;;8.45;5.22;;;;;;;14.72;44.89;99712.00;5094746;28;20034;-76
2023/04/29 07:38:25;;;;;;;5.50;4.88;;;;;;;14.75;44.62;99699.13;5094711;28;20087;-78
2023/04/29 07:40:51;;;;;;;4.75;4.35;;;;;;;14.82;44.22;99694.63;5094579;28;20471;-76
2023/04/29 07:43:17;;;;;;;10.63;6.68;;;;;;;14.60;43.36;99655.94;5094501;28;20509;-76
2023/04/29 07:45:42;;;;;;;8.93;4.30;;;;;;;15.16;43.43;99719.47;5094505;28;20393;-76
2023/04/29 07:48:08;;;;;;;5.78;4.13;;;;;;;14.84;42.54;99649.25;5094256;28;20420;-76
2023/04/29 07:50:35;;;;;;;4.72;3.95;;;;;;;15.33;42.24;99711.91;5092921;28;20493;-77
2023/04/29 07:53:02;;;;;;;7.50;4.57;;;;;;;14.25;42.20;99531.22;5094039;28;20063;-77
2023/04/29 07:55:31;;;;;;;13.45;5.75;;;;;;;15.00;41.58;99640.09;5094204;28;20027;-76
2023/04/29 07:57:57;;;;;;;23.00;7.22;;;;;;;15.51;41.37;99710.25;5094318;28;20038;-76
2023/04/29 08:00:23;;;;;;;5.43;3.55;;;;;;;14.94;40.76;99602.66;5092881;28;20075;-76
2023/04/29 08:02:52;;;;;;;15.25;4.47;;;;;;;15.57;40.79;99703.28;5094280;28;20524;-76
2023/04/29 08:05:20;;;;;;;10.65;3.53;;;;;;;15.52;40.39;99657.84;5094367;28;20047;-76
2023/04/29 08:07:46;;;;;;;5.68;3.20;;;;;;;15.58;40.09;99662.38;5094003;28;20103;-78
2023/04/29 08:10:11;;;;;;;4.22;3.17;;;;;;;15.68;39.56;99657.47;5092564;28;20583;-74
2023/04/29 08:12:37;;;;;;;4.60;3.70;;;;;;;16.02;39.58;99690.16;5093940;28;20103;-78
2023/04/29 08:15:02;;;;;;;11.73;5.93;;;;;;;16.12;39.61;99688.69;5094013;28;20024;-77
2023/04/29 08:17:27;;;;;;;10.02;4.70;;;;;;;15.76;39.35;99609.31;5093767;28;20103;-76
2023/04/29 08:19:53;;;;;;;5.35;3.30;;;;;;;15.40;39.30;99561.06;5093947;28;20111;-77
2023/04/29 08:22:18;;;;;;;4.10;3.70;;;;;;;16.23;38.89;99633.91;5093738;28;20496;-77
2023/04/29 08:24:44;;;;;;;10.88;5.63;;;;;;;16.29;38.88;99618.94;5092826;28;20128;-77
2023/04/29 08:27:09;;;;;;;7.03;4.07;;;;;;;16.38;38.73;99617.69;5093577;28;20069;-76
2023/04/29 08:29:35;;;;;;;5.32;4.25;;;;;;;16.87;38.53;99659.63;5093653;28;20036;-77
2023/04/29 08:32:00;;;;;;;11.55;4.85;;;;;;;16.81;37.98;99639.16;5093848;28;20039;-76
2023/04/29 08:34:26;;;;;;;7.72;4.28;;;;;;;16.75;37.60;99618.69;5093430;28;20042;-78
2023/04/29 08:36:52;;;;;;;6.20;4.07;;;;;;;17.11;37.54;99674.06;5093437;28;20431;-76
2023/04/29 08:39:17;;;;;;;7.13;4.07;;;;;;;17.06;37.40;99620.50;5093362;28;20114;-78
2023/04/29 08:41:50;;;;;;;3.75;3.35;;;;;;;16.59;37.36;99547.22;5092868;28;20034;-76
2023/04/29 08:44:16;;;;;;;17.27;5.90;;;;;;;16.93;37.37;99594.75;5093461;28;20050;-76
2023/04/29 08:46:44;;;;;;;4.72;3.88;;;;;;;17.31;37.51;99613.34;5093565;28;20073;-76
2023/04/29 08:49:10;;;;;;;21.80;6.95;;;;;;;17.63;36.20;99642.59;5092931;28;20416;-76
2023/04/29 08:51:36;;;;;;;6.72;4.65;;;;;;;17.71;35.49;99640.47;5091773;28;20042;-77
2023/04/29 08:54:01;;;;;;;5.30;4.43;;;;;;;17.84;35.38;99628.84;5093116;28;20028;-76
2023/04/29 08:56:29;;;;;;;5.90;4.22;;;;;;;17.74;34.67;99577.78;5093116;28;20078;-75
2023/04/29 08:58:57;;;;;;;6.53;4.25;;;;;;;17.85;34.46;99557.56;5093067;28;20032;-77
2023/04/29 09:01:25;;;;;;;6.75;4.13;;;;;;;17.94;33.94;99548.19;5093046;28;20031;-76
2023/04/29 09:04:12;;;;;;;8.95;5.05;;;;;;;18.58;33.04;99634.88;5092977;28;20023;-77
2023/04/29 09:06:38;;;;;;;29.80;8.55;;;;;;;18.11;33.58;99554.53;5092842;28;20028;-76
2023/04/29 09:09:04;;;;;;;6.68;5.97;;;;;;;18.14;33.42;99537.22;5091381;28;20477;-78
2023/04/29 09:11:31;;;;;;;11.55;5.15;;;;;;;18.93;32.94;99638.53;5091487;28;20032;-77
2023/04/29 09:14:08;;;;;;;6.30;4.85;;;;;;;19.11;32.71;99628.78;5091604;28;20069;-77
2023/04/29 09:16:36;;;;;;;4.78;3.28;;;;;;;19.34;32.24;99636.84;5092902;28;20115;-77
2023/04/29 09:19:01;;;;;;;8.63;3.55;;;;;;;19.54;31.29;99623.13;5092510;28;20028;-76
2023/04/29 09:21:31;;;;;;;31.20;6.90;;;;;;;19.60;29.89;99623.00;5092420;28;20028;-77
2023/04/29 09:23:58;;;;;;;4.03;3.00;;;;;;;19.23;29.38;99534.03;5092668;28;20020;-77
2023/04/29 09:26:24;;;;;;;12.65;3.22;;;;;;;19.81;28.47;99612.72;5092606;28;20040;-77
2023/04/29 09:29:17;;;;;;;29.98;5.90;;;;;;;20.07;28.35;99620.25;5092582;28;20067;-76
2023/04/29 09:31:43;;;;;;;5.60;3.30;;;;;;;19.85;27.49;99571.00;5092409;28;20028;-77
2023/04/29 09:34:10;;;;;;;5.20;3.10;;;;;;;20.21;27.74;99599.34;5091027;28;20027;-76
2023/04/29 09:36:41;;;;;;;12.80;4.40;;;;;;;20.56;27.07;99615.31;5092402;28;20035;-77
2023/04/29 09:39:11;;;;;;;9.52;3.38;;;;;;;20.28;27.23;99541.03;5092244;28;20108;-76
2023/04/29 09:42:02;;;;;;;7.28;3.70;;;;;;;21.01;26.00;99596.50;5092161;28;20501;-77
2023/04/29 09:44:34;;;;;;;15.23;3.92;;;;;;;21.07;27.14;99594.69;5092171;28;20560;-77
2023/04/29 09:47:05;;;;;;;16.70;4.60;;;;;;;21.17;26.28;99584.94;5092434;28;20085;-76
2023/04/29 09:49:40;;;;;;;7.45;3.10;;;;;;;21.28;25.97;99569.00;5092172;28;20020;-76
2023/04/29 09:52:07;;;;;;;9.18;3.95;;;;;;;21.10;25.69;99500.25;5092137;28;20148;-76
2023/04/29 09:54:35;;;;;;;5.95;3.42;;;;;;;21.84;25.26;99584.81;5077919;28;20044;-73
2023/04/29 09:57:04;;;;;;;3.78;3.30;;;;;;;21.39;24.87;99517.03;5071636;28;20032;-77
2023/04/29 09:59:31;;;;;;;2.78;2.55;;;;;;;21.97;24.53;99580.13;5071802;28;20086;-76
2023/04/29 10:01:57;;;;;;;3.65;2.90;;;;;;;22.11;24.28;99567.94;5071573;28;20108;-77
2023/04/29 10:04:25;;;;;;;4.13;2.30;;;;;;;22.29;24.16;99556.00;5071543;28;20028;-76
2023/04/29 10:06:52;;;;;;;31.67;7.85;;;;;;;21.98;24.00;99477.69;5071453;28;20035;-76
2023/04/29 10:09:19;;;;;;;5.30;2.78;;;;;;;22.50;24.10;99557.84;5071561;28;20063;-77
2023/04/29 10:11:49;;;;;;;3.38;2.80;;;;;;;22.55;24.16;99552.50;5071649;28;20052;-77
2023/04/29 10:14:20;;;;;;;5.85;4.05;;;;;;;22.24;23.91;99508.34;5070195;28;20036;-77
2023/04/29 10:17:08;;;;;;;12.00;5.18;;;;;;;22.69;24.24;99551.00;5072110;28;20028;-77
2023/04/29 10:19:38;;;;;;;5.75;3.22;;;;;;;22.90;24.17;99538.56;5065934;28;20040;-75
2023/04/29 10:22:11;;;;;;;5.68;3.33;;;;;;;22.50;23.59;99479.81;5071547;28;20048;-75
2023/04/29 10:24:38;;;;;;;5.80;3.70;;;;;;;23.00;23.71;99543.19;5071137;28;20270;-76
2023/04/29 10:27:07;;;;;;;4.35;3.20;;;;;;;22.71;23.33;99476.22;5070929;28;20593;-76
2023/04/29 10:29:36;;;;;;;7.65;3.22;;;;;;;23.02;23.60;99503.34;5071213;28;20031;-75
2023/04/29 10:32:03;;;;;;;6.10;2.97;;;;;;;23.39;22.99;99536.44;5071374;28;20097;-76
2023/04/29 10:34:30;;;;;;;3.88;2.97;;;;;;;23.18;22.91;99475.47;5071616;28;20024;-76
2023/04/29 10:36:57;;;;;;;6.28;3.28;;;;;;;23.67;22.74;99518.28;5069919;28;20031;-76
2023/04/29 10:39:35;;;;;;;10.55;3.97;;;;;;;23.92;21.70;99528.34;5071321;28;20048;-75
2023/04/29 10:42:04;;;;;;;3.22;2.50;;;;;;;23.92;21.96;99509.47;5069989;28;20024;-76
2023/04/29 10:44:30;;;;;;;4.97;2.90;;;;;;;23.59;22.07;99460.28;5071277;28;20056;-76
2023/04/29 10:47:19;;;;;;;3.90;2.38;;;;;;;24.33;21.74;99526.56;5071158;28;20020;-76
2023/04/29 10:50:03;;;;;;;3.88;2.60;;;;;;;24.33;20.45;99508.47;5065763;28;20033;-76
2023/04/29 10:52:28;;;;;;;4.22;2.65;;;;;;;23.74;21.16;99456.81;5071516;28;20024;-76
2023/04/29 10:55:03;;;;;;;8.35;3.25;;;;;;;23.75;21.05;99464.66;5071546;28;20024;-76
2023/04/29 10:57:28;;;;;;;5.07;2.28;;;;;;;23.99;21.21;99474.97;5071182;28;20036;-76
2023/04/29 10:59:55;;;;;;;5.10;2.67;;;;;;;24.49;21.19;99506.59;5071070;28;20056;-76
2023/04/29 11:02:20;;;;;;;4.50;2.70;;;;;;;24.32;20.61;99446.69;5069888;28;20512;-76
2023/04/29 11:05:08;;;;;;;11.07;3.65;;;;;;;24.94;19.24;99503.06;5072247;28;20193;-77
2023/04/29 11:07:33;;;;;;;9.50;3.55;;;;;;;24.61;20.72;99418.06;5074867;28;20036;-77
2023/04/29 11:10:01;;;;;;;3.20;2.03;;;;;;;25.27;20.19;99496.28;5074972;28;20020;-76
2023/04/29 11:12:27;;;;;;;2.90;2.70;;;;;;;25.41;20.44;99495.69;5074930;28;20033;-77
2023/04/29 11:14:54;;;;;;;12.60;3.08;;;;;;;25.47;20.16;99490.00;5075063;28;20063;-76
2023/04/29 11:17:19;;;;;;;18.30;4.60;;;;;;;25.06;19.65;99435.25;5074871;28;20055;-76
2023/04/29 11:19:48;;;;;;;7.03;3.00;;;;;;;25.07;19.74;99480.09;5074839;28;20060;-76
2023/04/29 11:22:27;;;;;;;4.32;3.17;;;;;;;24.98;19.75;99482.56;5074847;28;20029;-77
2023/04/29 11:25:01;;;;;;;7.53;3.83;;;;;;;24.42;20.03;99373.00;5074602;28;20028;-76
2023/04/29 11:27:32;;;;;;;12.30;4.95;;;;;;;25.21;20.11;99475.75;5073075;28;20040;-77
2023/04/29 11:29:59;;;;;;;3.65;3.10;;;;;;;25.43;19.60;99482.72;5074717;28;20031;-77
2023/04/29 11:32:26;;;;;;;6.80;2.70;;;;;;;25.68;19.54;99463.69;5073149;28;20468;-77